createdAt,value
2022-11-18T00:02:01.557Z,4.67
2022-11-18T00:04:31.343Z,4.33
2022-11-18T00:06:59.186Z,4.83
2022-11-18T00:09:29.279Z,4.20
2022-11-18T00:12:16.048Z,4.27
2022-11-18T00:14:46.325Z,4.10
2022-11-18T00:20:24.537Z,5.20
2022-11-18T00:22:56.914Z,4.87
2022-11-18T00:25:24.741Z,5.07
2022-11-18T00:27:55.269Z,4.20
2022-11-18T00:30:30.742Z,8.90
2022-11-18T00:33:01.685Z,7.70
2022-11-18T00:35:31.896Z,6.97
2022-11-18T00:38:00.896Z,7.73
2022-11-18T00:40:57.230Z,5.20
2022-11-18T00:43:34.530Z,5.50
2022-11-18T00:46:13.442Z,5.60
2022-11-18T00:48:50.105Z,5.20
2022-11-18T00:51:27.639Z,5.53
2022-11-18T00:53:56.535Z,4.97
2022-11-18T00:56:28.774Z,5.10
2022-11-18T00:58:58.195Z,5.47
2022-11-18T01:01:30.098Z,5.20
2022-11-18T01:04:00.432Z,5.43
2022-11-18T01:06:30.473Z,6.10
2022-11-18T01:08:58.795Z,5.37
2022-11-18T01:11:45.646Z,5.90
2022-11-18T01:14:22.703Z,5.00
2022-11-18T01:17:02.218Z,5.50
2022-11-18T01:19:35.995Z,5.40
2022-11-18T01:22:09.425Z,6.07
2022-11-18T01:24:39.083Z,5.20
2022-11-18T01:27:10.277Z,6.10
2022-11-18T01:29:43.756Z,5.00
2022-11-18T01:32:26.353Z,4.80
2022-11-18T01:35:04.844Z,6.10
2022-11-18T01:38:16.901Z,6.00
2022-11-18T01:40:45.239Z,5.37
2022-11-18T01:43:22.100Z,5.10
2022-11-18T01:46:11.176Z,5.47
2022-11-18T01:48:40.923Z,5.73
2022-11-18T01:51:17.557Z,6.50
2022-11-18T01:53:52.665Z,5.93
2022-11-18T01:56:50.099Z,6.00
2022-11-18T01:59:35.170Z,7.50
2022-11-18T02:02:22.846Z,6.00
2022-11-18T02:04:59.217Z,5.40
2022-11-18T02:07:48.559Z,6.53
2022-11-18T02:10:28.070Z,7.00
2022-11-18T02:13:02.427Z,8.63
2022-11-18T02:15:49.122Z,8.27
2022-11-18T02:18:36.283Z,8.47
2022-11-18T02:21:23.324Z,8.13
2022-11-18T02:24:22.784Z,8.30
2022-11-18T02:27:27.403Z,9.50
2022-11-18T02:30:04.175Z,8.80
2022-11-18T02:32:35.501Z,10.30
2022-11-18T02:35:12.551Z,10.13
2022-11-18T02:37:49.664Z,9.00
2022-11-18T02:40:32.892Z,10.27
2022-11-18T02:43:08.600Z,9.10
2022-11-18T02:45:42.486Z,8.90
2022-11-18T02:48:19.419Z,10.60
2022-11-18T02:50:56.784Z,9.40
2022-11-18T02:53:30.163Z,8.97
2022-11-18T02:56:00.203Z,8.37
2022-11-18T02:58:28.337Z,9.20
2022-11-18T03:00:59.898Z,9.30
2022-11-18T03:03:36.121Z,8.57
2022-11-18T03:06:13.260Z,8.40
2022-11-18T03:09:00.891Z,8.60
2022-11-18T03:11:36.799Z,9.40
2022-11-18T03:14:16.943Z,8.70
2022-11-18T03:20:00.262Z,8.83
2022-11-18T03:22:34.553Z,8.13
2022-11-18T03:25:08.787Z,9.03
2022-11-18T03:27:45.674Z,7.90
2022-11-18T03:30:22.017Z,9.60
2022-11-18T03:33:15.650Z,9.13
2022-11-18T03:35:47.705Z,8.63
2022-11-18T03:38:21.481Z,8.60
2022-11-18T03:40:55.085Z,8.20
2022-11-18T03:43:49.291Z,9.37
2022-11-18T03:46:26.754Z,10.00
2022-11-18T03:49:03.655Z,9.00
2022-11-18T03:51:37.669Z,9.70
2022-11-18T03:54:16.382Z,8.47
2022-11-18T03:56:58.226Z,7.90
2022-11-18T03:59:34.826Z,8.60
2022-11-18T04:02:08.386Z,8.57
2022-11-18T04:04:38.037Z,8.53
2022-11-18T04:07:11.770Z,8.23
2022-11-18T04:09:44.561Z,8.13
2022-11-18T04:12:16.077Z,7.40
2022-11-18T04:14:54.729Z,6.27
2022-11-18T04:17:39.450Z,7.33
2022-11-18T04:20:16.537Z,5.70
2022-11-18T04:22:45.274Z,5.27
2022-11-18T04:25:16.846Z,5.63
2022-11-18T04:27:45.675Z,5.47
2022-11-18T04:30:15.837Z,5.00
2022-11-18T04:32:45.025Z,4.67
2022-11-18T04:35:17.375Z,5.17
2022-11-18T04:37:45.988Z,5.47
2022-11-18T04:40:13.947Z,4.80
2022-11-18T04:42:41.837Z,4.40
2022-11-18T04:45:11.723Z,4.87
2022-11-18T04:47:42.283Z,5.50
2022-11-18T04:50:10.804Z,4.60
2022-11-18T04:52:42.793Z,5.00
2022-11-18T04:55:10.350Z,4.37
2022-11-18T04:57:42.979Z,4.20
2022-11-18T05:00:11.947Z,4.50
2022-11-18T05:02:42.384Z,4.50
2022-11-18T05:05:12.055Z,4.30
2022-11-18T05:07:42.818Z,3.80
2022-11-18T05:10:14.240Z,4.20
2022-11-18T05:12:50.507Z,4.10
2022-11-18T05:15:21.581Z,3.60
2022-11-18T05:17:51.976Z,4.13
2022-11-18T05:20:37.414Z,4.50
2022-11-18T05:23:12.214Z,4.87
2022-11-18T05:25:40.157Z,4.30
2022-11-18T05:28:09.320Z,4.50
2022-11-18T05:30:37.244Z,4.83
2022-11-18T05:33:05.398Z,4.33
2022-11-18T05:35:33.692Z,4.73
2022-11-18T05:38:05.843Z,4.47
2022-11-18T05:40:34.853Z,4.57
2022-11-18T05:43:13.925Z,4.20
2022-11-18T05:45:46.340Z,5.37
2022-11-18T05:48:15.725Z,4.97
2022-11-18T05:50:46.662Z,4.80
2022-11-18T05:53:19.552Z,4.83
2022-11-18T05:55:56.500Z,4.57
2022-11-18T05:58:26.703Z,5.30
2022-11-18T06:01:00.323Z,4.40
2022-11-18T06:03:32.693Z,4.97
2022-11-18T06:06:05.478Z,4.80
2022-11-18T06:08:42.224Z,4.73
2022-11-18T06:11:16.400Z,4.87
2022-11-18T06:13:50.680Z,5.00
2022-11-18T06:16:24.995Z,4.97
2022-11-18T06:18:54.427Z,5.13
2022-11-18T06:21:27.044Z,5.00
2022-11-18T06:23:58.121Z,5.03
2022-11-18T06:26:32.414Z,5.00
2022-11-18T06:29:08.284Z,5.33
2022-11-18T06:31:37.418Z,5.60
2022-11-18T06:34:05.496Z,6.57
2022-11-18T06:36:36.818Z,5.60
2022-11-18T06:39:05.840Z,5.50
2022-11-18T06:41:37.857Z,5.00
2022-11-18T06:44:12.995Z,5.60
2022-11-18T06:47:03.025Z,6.20
2022-11-18T06:49:35.818Z,6.53
2022-11-18T06:52:13.802Z,6.60
2022-11-18T06:54:45.240Z,9.80
2022-11-18T06:57:22.967Z,32.67
2022-11-18T06:59:52.035Z,18.60
2022-11-18T07:02:20.180Z,7.60
2022-11-18T07:04:47.779Z,6.07
2022-11-18T07:07:15.879Z,7.37
2022-11-18T07:09:44.592Z,10.63
2022-11-18T07:12:12.256Z,8.13
2022-11-18T07:14:41.185Z,11.10
2022-11-18T07:17:08.769Z,6.40
2022-11-18T07:19:36.771Z,6.00
2022-11-18T07:22:04.452Z,50.23
2022-11-18T07:24:32.563Z,18.20
2022-11-18T07:27:00.991Z,10.33
2022-11-18T07:29:37.694Z,8.73
2022-11-18T07:32:21.823Z,8.80
2022-11-18T07:34:50.389Z,7.00
2022-11-18T07:37:18.401Z,7.80
2022-11-18T07:39:50.023Z,7.60
2022-11-18T07:42:18.104Z,7.57
2022-11-18T07:44:46.486Z,7.20
2022-11-18T07:47:17.926Z,7.57
2022-11-18T07:50:00.637Z,8.50
2022-11-18T07:52:28.409Z,9.60
2022-11-18T07:54:57.947Z,9.97
2022-11-18T07:57:25.626Z,8.93
2022-11-18T07:59:53.247Z,9.70
2022-11-18T08:02:29.010Z,6.70
2022-11-18T08:04:58.365Z,7.53
2022-11-18T08:07:28.690Z,7.60
2022-11-18T08:09:57.257Z,7.70
2022-11-18T08:12:25.626Z,7.60
2022-11-18T08:14:53.651Z,6.17
2022-11-18T08:17:26.629Z,5.63
2022-11-18T08:19:54.527Z,5.77
2022-11-18T08:22:22.549Z,8.97
2022-11-18T08:24:50.612Z,8.33
2022-11-18T08:27:23.711Z,7.63
2022-11-18T08:29:52.295Z,8.20
2022-11-18T08:32:20.028Z,8.73
2022-11-18T08:34:51.309Z,8.13
2022-11-18T08:37:19.395Z,8.90
2022-11-18T08:39:47.524Z,8.90
2022-11-18T08:42:18.325Z,9.07
2022-11-18T08:44:48.718Z,8.80
2022-11-18T08:47:19.123Z,8.90
2022-11-18T08:49:47.409Z,10.80
2022-11-18T08:52:16.732Z,8.70
2022-11-18T08:54:44.460Z,8.10
2022-11-18T08:57:12.117Z,7.77
2022-11-18T08:59:39.746Z,8.10
2022-11-18T09:02:09.214Z,6.73
2022-11-18T09:04:37.194Z,7.63
2022-11-18T09:07:05.420Z,7.80
2022-11-18T09:09:37.129Z,6.53
2022-11-18T09:12:07.613Z,6.37
2022-11-18T09:17:26.510Z,5.97
2022-11-18T09:19:55.070Z,5.73
2022-11-18T09:22:55.366Z,6.03
2022-11-18T09:25:25.801Z,5.73
2022-11-18T09:27:55.458Z,6.30
2022-11-18T09:30:23.147Z,6.07
2022-11-18T09:32:51.263Z,6.70
2022-11-18T09:35:19.005Z,5.60
2022-11-18T09:37:46.907Z,5.30
2022-11-18T09:40:18.656Z,5.50
2022-11-18T09:43:01.817Z,4.60
2022-11-18T09:45:37.426Z,4.40
2022-11-18T09:48:16.699Z,4.20
2022-11-18T09:50:50.049Z,3.93
2022-11-18T09:53:21.155Z,4.33
2022-11-18T09:55:50.509Z,3.47
2022-11-18T09:58:23.785Z,3.10
2022-11-18T10:00:51.391Z,2.93
2022-11-18T10:03:28.175Z,2.80
2022-11-18T10:05:59.547Z,2.80
2022-11-18T10:08:32.703Z,3.60
2022-11-18T10:11:07.843Z,2.93
2022-11-18T10:13:49.900Z,2.93
2022-11-18T10:16:30.290Z,2.80
2022-11-18T10:19:06.441Z,2.73
2022-11-18T10:21:47.427Z,3.10
2022-11-18T10:24:20.885Z,3.13
2022-11-18T10:26:49.216Z,2.60
2022-11-18T10:29:18.328Z,2.20
2022-11-18T10:32:01.134Z,2.40
2022-11-18T10:34:33.889Z,2.20
2022-11-18T10:37:05.415Z,2.37
2022-11-18T10:39:35.383Z,2.00
2022-11-18T10:42:06.491Z,2.50
2022-11-18T10:44:38.907Z,1.90
2022-11-18T10:47:41.764Z,1.60
2022-11-18T10:50:30.695Z,1.90
2022-11-18T10:52:58.407Z,2.07
2022-11-18T10:55:29.717Z,2.00
2022-11-18T10:58:01.754Z,1.60
2022-11-18T11:00:47.695Z,1.53
2022-11-18T11:03:37.089Z,2.37
2022-11-18T11:06:31.216Z,1.60
2022-11-18T11:09:02.410Z,1.90
2022-11-18T11:11:33.389Z,2.00
2022-11-18T11:14:26.897Z,1.73
2022-11-18T11:17:13.592Z,2.13
2022-11-18T11:19:49.300Z,2.13
2022-11-18T11:22:17.924Z,2.17
2022-11-18T11:24:47.099Z,1.70
2022-11-18T11:30:18.169Z,2.10
2022-11-18T11:33:33.395Z,2.13
2022-11-18T11:36:19.996Z,1.90
2022-11-18T11:39:04.239Z,1.60
2022-11-18T11:41:40.557Z,1.87
2022-11-18T11:44:26.832Z,1.70
2022-11-18T11:47:24.333Z,2.20
2022-11-18T11:50:02.236Z,2.40
2022-11-18T11:52:40.696Z,1.80
2022-11-18T11:55:18.029Z,2.50
2022-11-18T11:58:00.798Z,2.23
2022-11-18T12:00:28.911Z,1.73
2022-11-18T12:03:14.992Z,2.30
2022-11-18T12:05:44.348Z,1.70
2022-11-18T12:08:17.385Z,1.87
2022-11-18T12:10:49.345Z,2.00
2022-11-18T12:13:27.994Z,2.40
2022-11-18T12:16:10.316Z,2.20
2022-11-18T12:18:46.874Z,1.83
2022-11-18T12:21:48.048Z,2.50
2022-11-18T12:24:46.305Z,2.27
2022-11-18T12:27:15.925Z,1.73
2022-11-18T12:29:56.555Z,1.80
2022-11-18T12:32:31.826Z,1.60
2022-11-18T12:35:03.685Z,1.67
2022-11-18T12:37:46.223Z,1.60
2022-11-18T12:40:38.240Z,1.70
2022-11-18T12:43:24.584Z,1.90
2022-11-18T12:45:57.091Z,2.03
2022-11-18T12:48:35.151Z,1.93
2022-11-18T12:51:32.790Z,2.03
2022-11-18T12:54:01.515Z,2.00
2022-11-18T12:56:35.834Z,2.40
2022-11-18T12:59:04.441Z,1.80
2022-11-18T13:01:35.149Z,2.17
2022-11-18T13:04:08.845Z,1.83
2022-11-18T13:06:39.684Z,2.10
2022-11-18T13:09:16.452Z,2.10
2022-11-18T13:11:52.372Z,1.60
2022-11-18T13:14:42.049Z,1.67
2022-11-18T13:17:50.321Z,1.37
2022-11-18T13:20:29.930Z,1.20
2022-11-18T13:23:17.589Z,0.97
2022-11-18T13:25:46.842Z,1.20
2022-11-18T13:28:29.798Z,1.50
2022-11-18T13:31:06.350Z,1.87
2022-11-18T13:33:37.199Z,1.67
2022-11-18T13:36:14.139Z,1.97
2022-11-18T13:38:56.141Z,1.40
2022-11-18T13:41:32.929Z,1.50
2022-11-18T13:44:25.105Z,1.47
2022-11-18T13:46:57.099Z,1.97
2022-11-18T13:49:34.742Z,1.20
2022-11-18T13:52:02.962Z,1.80
2022-11-18T13:54:35.521Z,1.20
2022-11-18T13:57:05.467Z,1.60
2022-11-18T13:59:36.761Z,1.07
2022-11-18T14:02:04.457Z,1.30
2022-11-18T14:04:36.257Z,1.33
2022-11-18T14:07:26.955Z,1.37
2022-11-18T14:09:57.318Z,1.30
2022-11-18T14:12:28.951Z,1.50
2022-11-18T14:15:34.102Z,1.60
2022-11-18T14:18:03.647Z,1.83
2022-11-18T14:20:34.087Z,1.37
2022-11-18T14:23:05.654Z,1.40
2022-11-18T14:28:23.483Z,1.47
2022-11-18T14:31:06.652Z,1.47
2022-11-18T14:33:36.362Z,1.50
2022-11-18T14:36:12.194Z,1.40
2022-11-18T14:39:11.401Z,1.30
2022-11-18T14:41:48.093Z,1.53
2022-11-18T14:44:17.625Z,1.20
2022-11-18T14:46:49.864Z,1.30
2022-11-18T14:49:19.961Z,1.80
2022-11-18T14:51:48.098Z,2.43
2022-11-18T14:54:23.889Z,1.47
2022-11-18T14:56:58.682Z,1.80
2022-11-18T14:59:26.429Z,1.50
2022-11-18T15:01:56.538Z,1.10
2022-11-18T15:04:25.379Z,1.17
2022-11-18T15:06:53.303Z,1.80
2022-11-18T15:09:21.248Z,1.40
2022-11-18T15:11:50.835Z,1.67
2022-11-18T15:14:19.676Z,1.37
2022-11-18T15:16:47.512Z,1.60
2022-11-18T15:19:18.344Z,1.57
2022-11-18T15:21:46.315Z,2.03
2022-11-18T15:24:14.846Z,1.53
2022-11-18T15:26:46.967Z,1.53
2022-11-18T15:29:18.788Z,1.80
2022-11-18T15:31:47.952Z,1.80
2022-11-18T15:34:20.058Z,2.37
2022-11-18T15:36:48.230Z,1.70
2022-11-18T15:39:16.089Z,2.27
2022-11-18T15:41:44.242Z,1.97
2022-11-18T15:44:12.992Z,2.10
2022-11-18T15:46:40.948Z,2.53
2022-11-18T15:49:13.734Z,7.43
2022-11-18T15:51:43.058Z,3.03
2022-11-18T15:54:10.677Z,3.40
2022-11-18T15:56:40.184Z,1.77
2022-11-18T15:59:10.877Z,3.03
2022-11-18T16:01:40.241Z,5.13
2022-11-18T16:04:10.230Z,4.90
2022-11-18T16:06:39.541Z,3.00
2022-11-18T16:09:08.660Z,2.87
2022-11-18T16:11:54.021Z,10.07
2022-11-18T16:14:23.376Z,5.80
2022-11-18T16:16:54.003Z,5.17
2022-11-18T16:19:24.477Z,8.00
2022-11-18T16:21:54.591Z,4.30
2022-11-18T16:24:26.066Z,3.50
2022-11-18T16:26:54.904Z,3.27
2022-11-18T16:29:25.613Z,3.33
2022-11-18T16:31:54.983Z,2.70
2022-11-18T16:34:24.320Z,3.30
2022-11-18T16:36:53.956Z,3.07
2022-11-18T16:39:25.610Z,3.57
2022-11-18T16:41:54.677Z,3.90
2022-11-18T16:44:23.204Z,6.20
2022-11-18T16:46:52.633Z,4.00
2022-11-18T16:49:22.219Z,4.23
2022-11-18T16:51:52.837Z,3.50
2022-11-18T16:54:24.120Z,2.90
2022-11-18T16:56:53.088Z,3.07
2022-11-18T16:59:25.288Z,2.13
2022-11-18T17:01:56.027Z,2.17
2022-11-18T17:04:25.452Z,3.03
2022-11-18T17:06:54.608Z,2.20
2022-11-18T17:09:36.539Z,2.60
2022-11-18T17:12:05.529Z,2.20
2022-11-18T17:14:34.033Z,2.67
2022-11-18T17:17:04.222Z,2.70
2022-11-18T17:19:33.081Z,2.50
2022-11-18T17:22:05.152Z,2.27
2022-11-18T17:24:34.499Z,2.47
2022-11-18T17:27:05.740Z,2.40
2022-11-18T17:29:34.777Z,2.93
2022-11-18T17:32:02.714Z,2.50
2022-11-18T17:34:30.824Z,3.17
2022-11-18T17:37:04.781Z,3.60
2022-11-18T17:39:36.428Z,3.13
2022-11-18T17:42:26.722Z,2.53
2022-11-18T17:45:02.798Z,2.43
2022-11-18T17:47:38.335Z,2.97
2022-11-18T17:50:08.231Z,2.30
2022-11-18T17:56:10.021Z,2.77
2022-11-18T17:58:39.244Z,2.43
2022-11-18T18:01:12.021Z,2.87
2022-11-18T18:03:41.198Z,2.27
2022-11-18T18:06:13.768Z,2.40
2022-11-18T18:08:46.358Z,2.73
2022-11-18T18:11:30.497Z,2.40
2022-11-18T18:14:13.040Z,2.40
2022-11-18T18:16:44.946Z,2.90
2022-11-18T18:19:18.355Z,3.67
2022-11-18T18:21:52.279Z,2.63
2022-11-18T18:24:21.562Z,2.60
2022-11-18T18:26:57.460Z,2.60
2022-11-18T18:29:32.120Z,2.70
2022-11-18T18:32:01.161Z,2.77
2022-11-18T18:34:31.586Z,2.23
2022-11-18T18:36:59.928Z,2.50
2022-11-18T18:39:30.153Z,2.50
2022-11-18T18:42:00.433Z,2.40
2022-11-18T18:44:50.181Z,2.50
2022-11-18T18:47:17.887Z,2.90
2022-11-18T18:49:50.497Z,4.33
2022-11-18T18:52:29.091Z,4.07
2022-11-18T18:54:57.964Z,3.67
2022-11-18T18:57:27.291Z,3.37
2022-11-18T18:59:57.971Z,3.30
2022-11-18T19:02:28.676Z,3.40
2022-11-18T19:05:06.240Z,3.10
2022-11-18T19:07:37.885Z,2.50
2022-11-18T19:10:09.513Z,3.20
2022-11-18T19:12:47.336Z,3.60
2022-11-18T19:15:16.963Z,3.53
2022-11-18T19:18:07.043Z,2.53
2022-11-18T19:20:37.132Z,3.27
2022-11-18T19:23:10.659Z,2.97
2022-11-18T19:25:38.657Z,4.80
2022-11-18T19:28:11.897Z,6.30
2022-11-18T19:30:40.160Z,4.20
2022-11-18T19:33:07.772Z,3.77
2022-11-18T19:35:35.835Z,3.60
2022-11-18T19:38:04.066Z,3.23
2022-11-18T19:40:32.160Z,3.60
2022-11-18T19:45:54.749Z,3.50
2022-11-18T19:48:27.855Z,3.00
2022-11-18T19:51:07.352Z,3.13
2022-11-18T19:53:36.886Z,2.60
2022-11-18T19:56:17.914Z,2.70
2022-11-18T19:58:46.530Z,3.20
2022-11-18T20:01:18.482Z,2.80
2022-11-18T20:03:48.620Z,2.93
2022-11-18T20:06:39.209Z,3.00
2022-11-18T20:09:08.658Z,3.43
2022-11-18T20:11:39.194Z,3.20
2022-11-18T20:14:37.527Z,3.03
2022-11-18T20:20:27.327Z,3.63
2022-11-18T20:23:01.687Z,3.27
2022-11-18T20:25:34.059Z,3.13
2022-11-18T20:28:01.780Z,3.37
2022-11-18T20:30:34.258Z,3.37
2022-11-18T20:33:03.611Z,2.37
2022-11-18T20:35:31.869Z,3.43
2022-11-18T20:38:05.575Z,3.20
2022-11-18T20:40:39.933Z,3.33
2022-11-18T20:43:21.398Z,3.03
2022-11-18T20:46:03.684Z,3.20
2022-11-18T20:48:34.696Z,2.77
2022-11-18T20:51:04.395Z,3.20
2022-11-18T20:53:35.026Z,3.47
2022-11-18T20:56:03.001Z,3.20
2022-11-18T20:58:34.563Z,3.13
2022-11-18T21:01:12.650Z,3.63
2022-11-18T21:03:43.812Z,3.30
2022-11-18T21:06:19.615Z,2.80
2022-11-18T21:08:48.647Z,2.93
2022-11-18T21:11:24.632Z,3.27
2022-11-18T21:14:10.284Z,2.60
2022-11-18T21:16:41.087Z,3.37
2022-11-18T21:19:14.135Z,3.20
2022-11-18T21:21:50.118Z,3.90
2022-11-18T21:24:20.148Z,3.70
2022-11-18T21:26:52.026Z,2.93
2022-11-18T21:29:22.405Z,2.83
2022-11-18T21:31:52.595Z,3.00
2022-11-18T21:34:25.005Z,2.70
2022-11-18T21:36:55.202Z,2.67
2022-11-18T21:39:23.933Z,3.67
2022-11-18T21:41:55.757Z,2.67
2022-11-18T21:44:45.626Z,3.80
2022-11-18T21:47:14.723Z,3.27
2022-11-18T21:49:45.817Z,3.70
2022-11-18T21:52:17.215Z,2.93
2022-11-18T21:54:47.826Z,2.73
2022-11-18T21:57:17.361Z,3.00
2022-11-18T21:59:47.024Z,2.90
2022-11-18T22:02:21.787Z,2.33
2022-11-18T22:04:54.243Z,2.70
2022-11-18T22:07:24.774Z,2.93
2022-11-18T22:09:55.209Z,3.77
2022-11-18T22:12:23.106Z,3.47
2022-11-18T22:14:50.710Z,3.47
2022-11-18T22:17:18.681Z,4.50
2022-11-18T22:19:47.104Z,3.67
2022-11-18T22:22:18.575Z,4.03
2022-11-18T22:24:54.097Z,4.10
2022-11-18T22:27:22.434Z,3.83
2022-11-18T22:29:51.121Z,3.77
2022-11-18T22:32:23.832Z,3.90
2022-11-18T22:34:53.786Z,4.67
2022-11-18T22:37:27.980Z,5.60
2022-11-18T22:39:59.323Z,5.30
2022-11-18T22:42:45.021Z,4.77
2022-11-18T22:45:13.427Z,5.10
2022-11-18T22:47:41.225Z,4.90
2022-11-18T22:50:13.010Z,4.70
2022-11-18T22:52:50.498Z,4.20
2022-11-18T22:55:26.891Z,5.07
2022-11-18T22:57:55.787Z,4.47
2022-11-18T23:00:24.400Z,3.67
2022-11-18T23:02:55.077Z,3.70
2022-11-18T23:05:22.976Z,3.20
2022-11-18T23:07:52.431Z,3.10
2022-11-18T23:10:25.016Z,3.43
2022-11-18T23:13:10.414Z,3.60
2022-11-18T23:15:56.989Z,4.27
2022-11-18T23:18:24.956Z,3.50
2022-11-18T23:20:53.944Z,3.83
2022-11-18T23:23:28.367Z,3.17
2022-11-18T23:25:56.972Z,3.43
2022-11-18T23:28:27.781Z,3.20
2022-11-18T23:31:05.273Z,3.47
2022-11-18T23:33:43.259Z,4.00
2022-11-18T23:36:18.187Z,3.60
2022-11-18T23:38:51.788Z,3.27
2022-11-18T23:41:20.497Z,3.77
2022-11-18T23:46:53.848Z,2.97
2022-11-18T23:49:30.747Z,3.70
2022-11-18T23:52:00.094Z,2.90
2022-11-18T23:54:31.333Z,3.50
2022-11-18T23:56:59.285Z,3.57
2022-11-18T23:59:27.403Z,4.33
